Milford, IA

6:50 AM CST on February 24, 2017 (GMT -0600)
West Sioux Estates 10 | | Change Station
Active Advisory: Blizzard Warning Active Notice: Public Information Statement

Elev 1420 ft 43.32 °N, 95.20 °W | Updated 14 minutes ago

Snow
Snow
21.5 °F
Feels Like 6 °F
N
20.0
Wind Variable Wind from WNW
Gusts 31.0 mph

Today
High -- | Low -- °F
--% Chance of Precip.
Yesterday
High -- | Low -- °F
Precip. -- in
Pressure 29.74 in
Visibility 3.0 miles
Clouds Overcast 2100 ft
Windchill 6 °F
Dew Point 19 °F
Humidity 91%
Rainfall 0.00 in
Snow Depth Not available.
7:04 AM 6:03 PM
Waning Crescent, 5% visible
SPECI KSPW 241229Z AUTO 36028G36KT 3SM BR OVC021 M04/M07 A2974 RMK AO2 PK WND 01036/1228 T10441067 PWINO FZRANO $
Pressure 29.74 in
Visibility 3.0 miles
Clouds Overcast 2100 ft
Windchill 6 °F
Dew Point 19 °F
Humidity 91%
Rainfall 0.00 in
Snow Depth Not available.
7:04 AM 6:03 PM
Waning Crescent, 5% visible
SPECI KSPW 241229Z AUTO 36028G36KT 3SM BR OVC021 M04/M07 A2974 RMK AO2 PK WND 01036/1228 T10441067 PWINO FZRANO $

Get Your Daily Forecast Email!

Thanks for signing up!

Be on the lookout for a verification email in your inbox.

You'll start receiving the daily forecast at 8 AM.

×

10-Day Weather Forecast

Almanac

Astronomy

Feb. 24, 2017 Rise Set
Actual Time
Civil Twilight
Nautical Twilight
Astronomical Twilight
Moon
Length of Visible Light
Length of Day
Tomorrow will be .
, % of the Moon is Illuminated

Today's Extremes

State Highs State Lows

Community

WunderPhotos

Upload Photos

1,962,540 photos uploaded!

WunderBlog® & News

Nearby

Air Quality

  Air Quality AQ Index Pollutant
Not available.

Snow Depth

Station Depth Elevation

Earthquake Activity

City Distance Mag. Time & Date
Minimum magnitude displayed is 2.5.

Coastal Water Temperatures

Place Temperature

Stations

Nearby Weather Stations

Station Location Temp. Windchill Dew Point Humidity Wind Precip. Elev Updated Type
                   

Watches & Warnings

Blizzard Warning
Issued: 4:13 AM CST Feb. 24, 2017 – National Weather Service

... Blizzard Warning remains in effect until midnight CST
tonight...

* timing... snow will continue this morning, gradually tapering off
through the afternoon.

* Accumulations... additional accumulations averaging 1 to 3 inches
are possible, with the highest amounts south of Highway 18 in
northwest Iowa.

* Wind and visibility... north winds of 25 to 35 mph, with
occasional gusts of 40 to 45 mph, will be common today. Expect
areas of low visibility, especially while snow is falling.

Precautionary/preparedness actions...

A Blizzard Warning means severe winter weather conditions are
expected or occurring. Falling and blowing snow with strong winds
and poor visibilities are likely. This will lead to whiteout
conditions... making travel extremely dangerous. Do not travel. If
you must travel... have a winter survival kit with you. If you get
stranded... stay with your vehicle.